createdAt,value
2018-05-14T00:00:32.187Z,33.53
2018-05-14T00:01:32.203Z,33.53
2018-05-14T00:02:31.976Z,33.63
2018-05-14T00:03:32.268Z,33.82
2018-05-14T00:04:32.288Z,33.61
2018-05-14T00:05:32.298Z,33.71
2018-05-14T00:06:32.343Z,33.53
2018-05-14T00:07:32.079Z,33.53
2018-05-14T00:08:32.390Z,33.51
2018-05-14T00:09:32.407Z,33.81
2018-05-14T00:10:32.153Z,33.71
2018-05-14T00:11:32.189Z,34
2018-05-14T00:12:32.482Z,34
2018-05-14T00:13:32.500Z,33.81
2018-05-14T00:14:32.531Z,33.91
2018-05-14T00:15:32.273Z,33.91
2018-05-14T00:16:32.578Z,33.71
2018-05-14T00:17:32.600Z,33.91
2018-05-14T00:18:32.341Z,33.71
2018-05-14T00:19:32.375Z,34.09
2018-05-14T00:20:32.654Z,33.61
2018-05-14T00:21:32.689Z,34.09
2018-05-14T00:22:32.702Z,34.58
2018-05-14T00:23:32.716Z,34.19
2018-05-14T00:24:32.485Z,34.09
2018-05-14T00:25:32.771Z,34
2018-05-14T00:26:32.799Z,34
2018-05-14T00:27:32.818Z,34.29
2018-05-14T00:28:32.850Z,34.19
2018-05-14T00:29:32.872Z,34.48
2018-05-14T00:30:32.898Z,34.86
2018-05-14T00:31:32.641Z,34.48
2018-05-14T00:32:32.935Z,34.58
2018-05-14T00:33:32.694Z,34.58
2018-05-14T00:34:33.030Z,34.48
2018-05-14T00:35:32.747Z,34.67
2018-05-14T00:36:33.041Z,34.67
2018-05-14T00:37:33.066Z,34.84
2018-05-14T00:38:33.074Z,34.96
2018-05-14T00:39:33.110Z,34.94
2018-05-14T00:40:33.132Z,35.04
2018-05-14T00:41:33.231Z,34.75
2018-05-14T00:42:32.894Z,35.04
2018-05-14T00:43:33.209Z,35.04
2018-05-14T00:44:33.213Z,35.33
2018-05-14T00:45:33.055Z,35.33
2018-05-14T00:46:32.998Z,35.42
2018-05-14T00:47:33.293Z,34.84
2018-05-14T00:48:33.298Z,35.33
2018-05-14T00:49:33.467Z,34.94
2018-05-14T00:50:33.367Z,35.24
2018-05-14T00:51:33.378Z,35.14
2018-05-14T00:52:33.408Z,35.33
2018-05-14T00:53:33.162Z,35.24
2018-05-14T00:54:33.179Z,35.42
2018-05-14T00:55:33.479Z,35.42
2018-05-14T00:56:33.489Z,35.42
2018-05-14T00:57:33.513Z,35.42
2018-05-14T00:58:33.548Z,35.24
2018-05-14T00:59:33.575Z,35.52
2018-05-14T01:00:33.579Z,35.71
2018-05-14T01:01:33.604Z,35.52
2018-05-14T01:02:33.424Z,35.91
2018-05-14T01:03:33.377Z,35.62
2018-05-14T01:04:33.414Z,36
2018-05-14T01:05:33.693Z,35.6
2018-05-14T01:06:33.897Z,35.42
2018-05-14T01:07:33.737Z,35.6
2018-05-14T01:08:33.765Z,35.6
2018-05-14T01:09:33.527Z,35.6
2018-05-14T01:10:33.826Z,35.6
2018-05-14T01:11:33.831Z,35.6
2018-05-14T01:12:33.858Z,35.5
2018-05-14T01:13:33.615Z,35.5
2018-05-14T01:14:33.896Z,35.7
2018-05-14T01:15:33.925Z,36.08
2018-05-14T01:16:33.949Z,36.27
2018-05-14T01:17:34.065Z,36.56
2018-05-14T01:18:33.721Z,36.27
2018-05-14T01:19:34.028Z,36.18
2018-05-14T01:20:34.033Z,36.37
2018-05-14T01:21:34.075Z,36.66
2018-05-14T01:22:34.098Z,36.47
2018-05-14T01:23:34.126Z,36.56
2018-05-14T01:24:34.150Z,36.56
2018-05-14T01:25:34.148Z,36.66
2018-05-14T01:26:34.185Z,36.66
2018-05-14T01:27:34.219Z,36.66
2018-05-14T01:28:34.235Z,36.76
2018-05-14T01:29:34.236Z,36.95
2018-05-14T01:30:34.282Z,37.04
2018-05-14T01:31:34.306Z,36.85
2018-05-14T01:32:34.322Z,36.76
2018-05-14T01:33:34.062Z,36.66
2018-05-14T01:34:34.371Z,36.76
2018-05-14T01:35:34.393Z,36.37
2018-05-14T01:36:34.411Z,36.76
2018-05-14T01:37:34.426Z,36.56
2018-05-14T01:38:34.463Z,36.85
2018-05-14T01:39:34.483Z,36.95
2018-05-14T01:40:34.230Z,36.85
2018-05-14T01:41:34.517Z,36.85
2018-05-14T01:42:34.281Z,37.14
2018-05-14T01:43:34.563Z,36.95
2018-05-14T01:44:34.327Z,37.14
2018-05-14T01:45:34.625Z,37.72
2018-05-14T01:46:34.648Z,37.7
2018-05-14T01:47:34.665Z,37.24
2018-05-14T01:48:34.668Z,37.51
2018-05-14T01:49:34.711Z,37.12
2018-05-14T01:50:34.739Z,37.22
2018-05-14T01:51:34.474Z,37.52
2018-05-14T01:52:34.758Z,37.6
2018-05-14T01:53:34.788Z,37.72
2018-05-14T01:54:34.546Z,37.62
2018-05-14T01:55:34.830Z,37.79
2018-05-14T01:56:34.867Z,37.22
2018-05-14T01:57:34.876Z,37.79
2018-05-14T01:58:34.642Z,37.7
2018-05-14T01:59:34.944Z,37.99
2018-05-14T02:00:34.679Z,37.79
2018-05-14T02:01:34.961Z,37.79
2018-05-14T02:02:34.733Z,37.41
2018-05-14T02:03:35.028Z,37.12
2018-05-14T02:04:35.029Z,37.79
2018-05-14T02:05:35.076Z,37.12
2018-05-14T02:06:35.087Z,37.6
2018-05-14T02:07:35.122Z,37.99
2018-05-14T02:08:35.139Z,38.09
2018-05-14T02:09:35.148Z,37.99
2018-05-14T02:10:35.161Z,38.18
2018-05-14T02:11:35.203Z,38.47
2018-05-14T02:12:35.211Z,38.47
2018-05-14T02:13:35.249Z,38.28
2018-05-14T02:14:34.991Z,37.89
2018-05-14T02:15:35.303Z,38.47
2018-05-14T02:16:35.302Z,38.28
2018-05-14T02:17:35.320Z,38.47
2018-05-14T02:18:35.348Z,38.47
2018-05-14T02:19:35.114Z,38.37
2018-05-14T02:20:35.387Z,38.37
2018-05-14T02:21:35.428Z,38.47
2018-05-14T02:22:35.452Z,38.47
2018-05-14T02:23:35.455Z,38.56
2018-05-14T02:24:35.482Z,38.47
2018-05-14T02:25:35.501Z,38.74
2018-05-14T02:26:35.521Z,38.56
2018-05-14T02:27:35.561Z,38.47
2018-05-14T02:28:35.580Z,38.56
2018-05-14T02:29:35.606Z,38.64
2018-05-14T02:30:35.361Z,38.64
2018-05-14T02:31:35.635Z,38.45
2018-05-14T02:32:35.663Z,38.66
2018-05-14T02:33:35.697Z,38.54
2018-05-14T02:34:35.438Z,38.37
2018-05-14T02:35:35.728Z,38.74
2018-05-14T02:36:35.744Z,38.74
2018-05-14T02:37:35.784Z,38.74
2018-05-14T02:38:35.808Z,38.74
2018-05-14T02:39:35.818Z,38.93
2018-05-14T02:40:35.837Z,38.74
2018-05-14T02:41:35.872Z,38.74
2018-05-14T02:42:35.885Z,38.74
2018-05-14T02:43:35.642Z,38.74
2018-05-14T02:44:35.927Z,38.74
2018-05-14T02:45:35.949Z,39.03
2018-05-14T02:46:35.975Z,39.12
2018-05-14T02:47:35.990Z,38.84
2018-05-14T02:48:36.028Z,39.03
2018-05-14T02:49:35.770Z,38.93
2018-05-14T02:50:36.144Z,39.12
2018-05-14T02:51:36.100Z,39.31
2018-05-14T02:52:36.199Z,39.03
2018-05-14T02:53:36.136Z,38.84
2018-05-14T02:54:36.143Z,39.12
2018-05-14T02:55:36.173Z,39.31
2018-05-14T02:56:36.195Z,39.22
2018-05-14T02:57:36.308Z,39.51
2018-05-14T02:58:36.247Z,39.03
2018-05-14T02:59:36.275Z,39.22
2018-05-14T03:00:36.278Z,39.12
2018-05-14T03:01:36.302Z,39.51
2018-05-14T03:02:36.324Z,39.41
2018-05-14T03:03:36.091Z,39.51
2018-05-14T03:04:36.371Z,39.61
2018-05-14T03:05:36.402Z,39.61
2018-05-14T03:06:36.429Z,39.51
2018-05-14T03:07:36.449Z,39.61
2018-05-14T03:08:36.460Z,39.61
2018-05-14T03:09:36.210Z,39.97
2018-05-14T03:10:36.665Z,39.79
2018-05-14T03:11:36.520Z,39.89
2018-05-14T03:12:36.556Z,39.87
2018-05-14T03:13:36.306Z,40.37
2018-05-14T03:14:36.591Z,39.99
2018-05-14T03:15:36.349Z,40.18
2018-05-14T03:16:36.379Z,39.97
2018-05-14T03:17:36.668Z,39.99
2018-05-14T03:18:36.684Z,39.99
2018-05-14T03:19:36.707Z,40.18
2018-05-14T03:20:36.447Z,40.06
2018-05-14T03:21:36.745Z,40.16
2018-05-14T03:22:36.773Z,40.16
2018-05-14T03:23:36.799Z,39.87
2018-05-14T03:24:36.804Z,40.64
2018-05-14T03:25:36.843Z,40.73
2018-05-14T03:26:36.867Z,40.35
2018-05-14T03:27:36.874Z,40.47
2018-05-14T03:28:36.637Z,40.55
2018-05-14T03:29:36.931Z,40.35
2018-05-14T03:30:36.957Z,40.25
2018-05-14T03:31:36.704Z,40.35
2018-05-14T03:32:36.722Z,40.45
2018-05-14T03:33:37.000Z,40.64
2018-05-14T03:34:37.039Z,40.35
2018-05-14T03:35:37.056Z,40.55
2018-05-14T03:36:37.073Z,40.45
2018-05-14T03:37:37.101Z,40.35
2018-05-14T03:38:36.861Z,40.83
2018-05-14T03:39:36.873Z,40.73
2018-05-14T03:40:37.150Z,40.83
2018-05-14T03:41:37.398Z,40.73
2018-05-14T03:42:37.197Z,40.83
2018-05-14T03:43:37.220Z,40.93
2018-05-14T03:44:37.245Z,40.73
2018-05-14T03:45:37.278Z,40.83
2018-05-14T03:46:37.286Z,40.93
2018-05-14T03:47:37.325Z,40.73
2018-05-14T03:48:37.345Z,41.12
2018-05-14T03:49:37.368Z,41.22
2018-05-14T03:50:37.376Z,40.93
2018-05-14T03:51:37.399Z,40.83
2018-05-14T03:52:37.432Z,41.02
2018-05-14T03:53:37.184Z,41.22
2018-05-14T03:54:37.473Z,41.22
2018-05-14T03:55:37.501Z,41.12
2018-05-14T03:56:37.509Z,41.12
2018-05-14T03:57:37.544Z,41.02
2018-05-14T03:58:37.566Z,41.02
2018-05-14T03:59:37.587Z,41.12
2018-05-14T04:00:37.331Z,41
2018-05-14T04:01:37.647Z,41.12
2018-05-14T04:02:37.657Z,40.93
2018-05-14T04:03:37.392Z,41.79
2018-05-14T04:04:37.719Z,40.93
2018-05-14T04:05:37.457Z,41.5
2018-05-14T04:06:37.735Z,41.41
2018-05-14T04:07:37.744Z,40.93
2018-05-14T04:08:37.765Z,41.02
2018-05-14T04:09:37.789Z,40.73
2018-05-14T04:10:37.823Z,41.5
2018-05-14T04:11:37.827Z,41.5
2018-05-14T04:12:37.595Z,41.67
2018-05-14T04:13:37.891Z,41.7
2018-05-14T04:14:37.908Z,41.79
2018-05-14T04:15:37.934Z,41.89
2018-05-14T04:16:38.094Z,41.79
2018-05-14T04:17:37.698Z,41.58
2018-05-14T04:18:37.999Z,41.96
2018-05-14T04:19:38.090Z,41.89
2018-05-14T04:20:38.027Z,41.96
2018-05-14T04:21:38.051Z,41.99
2018-05-14T04:22:38.076Z,42.06
2018-05-14T04:23:38.105Z,42.06
2018-05-14T04:24:38.121Z,42.16
2018-05-14T04:25:38.129Z,41.96
2018-05-14T04:26:37.909Z,42.06
2018-05-14T04:27:38.184Z,41.87
2018-05-14T04:28:38.211Z,42.16
2018-05-14T04:29:38.316Z,41.96
2018-05-14T04:30:38.245Z,42.06
2018-05-14T04:31:38.266Z,41.87
2018-05-14T04:32:38.019Z,41.87
2018-05-14T04:33:38.052Z,42.16
2018-05-14T04:34:38.348Z,42.44
2018-05-14T04:35:38.346Z,42.25
2018-05-14T04:36:38.372Z,42.35
2018-05-14T04:37:38.393Z,41.96
2018-05-14T04:38:38.435Z,42.16
2018-05-14T04:39:38.438Z,42.44
2018-05-14T04:40:38.468Z,42.35
2018-05-14T04:41:38.492Z,42.35
2018-05-14T04:42:38.239Z,42.54
2018-05-14T04:43:38.537Z,42.44
2018-05-14T04:44:38.558Z,42.16
2018-05-14T04:45:38.582Z,42.44
2018-05-14T04:46:38.326Z,42.44
2018-05-14T04:47:38.613Z,42.35
2018-05-14T04:48:38.635Z,42.83
2018-05-14T04:49:38.658Z,42.83
2018-05-14T04:50:38.678Z,42.25
2018-05-14T04:51:38.703Z,42.93
2018-05-14T04:52:38.713Z,42.83
2018-05-14T04:53:38.480Z,43.02
2018-05-14T04:54:38.772Z,42.64
2018-05-14T04:55:38.792Z,42.73
2018-05-14T04:56:38.825Z,42.64
2018-05-14T04:57:38.842Z,42.73
2018-05-14T04:58:38.599Z,42.64
2018-05-14T04:59:38.868Z,42.83
2018-05-14T05:00:38.907Z,42.93
2018-05-14T05:01:38.930Z,42.64
2018-05-14T05:02:38.943Z,42.64
2018-05-14T05:03:38.965Z,42.64
2018-05-14T05:04:38.985Z,43.02
2018-05-14T05:05:39.008Z,42.44
2018-05-14T05:06:39.028Z,42.25
2018-05-14T05:07:39.039Z,42.93
2018-05-14T05:08:39.060Z,42.06
2018-05-14T05:09:38.824Z,42.06
2018-05-14T05:10:38.832Z,42.73
2018-05-14T05:11:38.864Z,42.83
2018-05-14T05:12:39.153Z,42.73
2018-05-14T05:13:39.183Z,42.73
2018-05-14T05:14:39.159Z,42.64
2018-05-14T05:15:39.224Z,42.64
2018-05-14T05:16:39.181Z,42.64
2018-05-14T05:17:39.274Z,42.64
2018-05-14T05:18:39.283Z,42.83
2018-05-14T05:19:39.025Z,42.73
2018-05-14T05:20:39.311Z,43.12
2018-05-14T05:21:39.079Z,43.31
2018-05-14T05:22:39.089Z,43.12
2018-05-14T05:23:39.112Z,43.31
2018-05-14T05:24:39.404Z,43.02
2018-05-14T05:25:39.445Z,42.93
2018-05-14T05:26:39.459Z,43.4
2018-05-14T05:27:39.464Z,43.4
2018-05-14T05:28:39.501Z,42.73
2018-05-14T05:29:39.521Z,43.31
2018-05-14T05:30:39.550Z,43.5
2018-05-14T05:31:39.565Z,43.31
2018-05-14T05:32:39.795Z,43.4
2018-05-14T05:33:39.594Z,43.31
2018-05-14T05:34:39.769Z,43.6
2018-05-14T05:35:39.657Z,43.21
2018-05-14T05:36:39.674Z,43.5
2018-05-14T05:37:39.759Z,43.7
2018-05-14T05:38:39.444Z,43.6
2018-05-14T05:39:39.741Z,43.21
2018-05-14T05:40:39.759Z,43.21
2018-05-14T05:41:39.773Z,43.4
2018-05-14T05:42:39.808Z,43.7
2018-05-14T05:43:39.824Z,43.79
2018-05-14T05:44:39.840Z,43.79
2018-05-14T05:45:39.849Z,43.52
2018-05-14T05:46:39.876Z,43.88
2018-05-14T05:47:39.894Z,43.88
2018-05-14T05:48:39.917Z,43.62
2018-05-14T05:49:39.948Z,43.79
2018-05-14T05:50:39.972Z,43.88
2018-05-14T05:51:39.978Z,43.79
2018-05-14T05:52:39.998Z,43.71
2018-05-14T05:53:40.020Z,44
2018-05-14T05:54:40.044Z,43.71
2018-05-14T05:55:40.077Z,43.81
2018-05-14T05:56:40.092Z,43.5
2018-05-14T05:57:40.121Z,43.43
2018-05-14T05:58:40.146Z,44.1
2018-05-14T05:59:40.149Z,44
2018-05-14T06:00:39.912Z,44
2018-05-14T06:01:39.923Z,43.91
2018-05-14T06:02:40.230Z,43.91
2018-05-14T06:03:40.231Z,44.2
2018-05-14T06:04:40.276Z,44.38
2018-05-14T06:05:40.015Z,44.29
2018-05-14T06:06:40.327Z,44.2
2018-05-14T06:07:40.320Z,43.91
2018-05-14T06:08:40.073Z,44
2018-05-14T06:09:40.115Z,43.91
2018-05-14T06:10:40.403Z,43.81
2018-05-14T06:11:40.410Z,43.23
2018-05-14T06:12:40.430Z,43.23
2018-05-14T06:13:40.475Z,43.14
2018-05-14T06:14:40.489Z,43.62
2018-05-14T06:15:40.495Z,43.52
2018-05-14T06:16:40.255Z,43.52
2018-05-14T06:17:40.554Z,43.26
2018-05-14T06:18:40.555Z,43.74
2018-05-14T06:19:40.579Z,43.45
2018-05-14T06:20:40.603Z,43.16
2018-05-14T06:21:40.364Z,43.16
2018-05-14T06:22:40.645Z,43.07
2018-05-14T06:23:40.684Z,42.97
2018-05-14T06:24:40.688Z,43.64
2018-05-14T06:25:40.706Z,43.16
2018-05-14T06:26:40.461Z,43.45
2018-05-14T06:27:40.763Z,43.45
2018-05-14T06:28:40.788Z,43.45
2018-05-14T06:29:40.802Z,43.45
2018-05-14T06:30:40.831Z,43.16
2018-05-14T06:31:40.853Z,43.45
2018-05-14T06:32:40.871Z,43.26
2018-05-14T06:33:40.883Z,43.26
2018-05-14T06:34:40.914Z,43.45
2018-05-14T06:35:41.312Z,43.07
2018-05-14T06:36:40.692Z,43.45
2018-05-14T06:37:40.969Z,43.16
2018-05-14T06:38:41.007Z,43.45
2018-05-14T06:39:41.009Z,43.37
2018-05-14T06:40:41.042Z,43.16
2018-05-14T06:41:41.064Z,43.28
2018-05-14T06:42:41.078Z,43.37
2018-05-14T06:43:41.097Z,43.37
2018-05-14T06:44:40.851Z,43.37
2018-05-14T06:45:41.143Z,43.47
2018-05-14T06:46:41.169Z,43.47
2018-05-14T06:47:41.203Z,43.47
2018-05-14T06:48:40.939Z,43.37
2018-05-14T06:49:41.242Z,43.95
2018-05-14T06:50:41.245Z,43.85
2018-05-14T06:51:41.003Z,43.76
2018-05-14T06:52:41.019Z,43.76
2018-05-14T06:53:41.312Z,43.49
2018-05-14T06:54:41.165Z,43.47
2018-05-14T06:55:41.351Z,43.85
2018-05-14T06:56:41.395Z,43.78
2018-05-14T06:57:41.415Z,43.59
2018-05-14T06:58:41.433Z,43.4
2018-05-14T06:59:41.460Z,43.68
2018-05-14T07:00:41.466Z,43.59
2018-05-14T07:01:41.509Z,43.49
2018-05-14T07:02:41.518Z,43.4
2018-05-14T07:03:41.542Z,43.59
2018-05-14T07:04:41.565Z,43.4
2018-05-14T07:05:41.581Z,43.4
2018-05-14T07:06:41.616Z,43.11
2018-05-14T07:07:41.616Z,43.2
2018-05-14T07:08:41.637Z,43.3
2018-05-14T07:09:41.663Z,43.23
2018-05-14T07:10:41.684Z,43.49
2018-05-14T07:11:41.707Z,43.41
2018-05-14T07:12:41.743Z,43.41
2018-05-14T07:13:41.764Z,43.51
2018-05-14T07:14:41.507Z,43.51
2018-05-14T07:15:41.812Z,43.8
2018-05-14T07:16:41.681Z,43.03
2018-05-14T07:17:41.570Z,43.23
2018-05-14T07:18:41.594Z,43.54
2018-05-14T07:19:41.899Z,43.63
2018-05-14T07:20:41.921Z,43.54
2018-05-14T07:21:41.922Z,43.24
2018-05-14T07:22:41.693Z,43.15
2018-05-14T07:23:41.986Z,43.05
2018-05-14T07:24:42.044Z,42.59
2018-05-14T07:25:42.027Z,42.79
2018-05-14T07:26:42.049Z,42.79
2018-05-14T07:27:42.078Z,42.21
2018-05-14T07:28:42.081Z,42.69
2018-05-14T07:29:42.117Z,42.59
2018-05-14T07:30:42.127Z,42.4
2018-05-14T07:31:42.164Z,42.49
2018-05-14T07:32:42.188Z,42.32
2018-05-14T07:33:42.189Z,42.23
2018-05-14T07:34:42.225Z,42.23
2018-05-14T07:35:42.249Z,42.03
2018-05-14T07:36:42.005Z,41.94
2018-05-14T07:37:42.289Z,41.09
2018-05-14T07:38:42.309Z,41.38
2018-05-14T07:39:42.570Z,41.28
2018-05-14T07:40:42.077Z,41.19
2018-05-14T07:41:42.115Z,41.19
2018-05-14T07:42:42.581Z,40.9
2018-05-14T07:43:42.579Z,40.9
2018-05-14T07:44:42.553Z,40.53
2018-05-14T07:45:42.491Z,40.82
2018-05-14T07:46:42.503Z,40.63
2018-05-14T07:47:42.531Z,40.15
2018-05-14T07:48:42.265Z,40.44
2018-05-14T07:49:42.559Z,40.17
2018-05-14T07:50:42.579Z,39.78
2018-05-14T07:51:57.224Z,39.69
2018-05-14T07:52:42.632Z,39.59
2018-05-14T07:53:42.638Z,39.49
2018-05-14T07:54:42.683Z,39.29
2018-05-14T07:55:42.704Z,39.51
2018-05-14T07:56:42.722Z,39.22
2018-05-14T07:57:42.734Z,38.93
2018-05-14T07:58:42.773Z,38.93
2018-05-14T07:59:42.787Z,38.64
2018-05-14T08:00:42.814Z,38.76
2018-05-14T08:01:42.826Z,38.56
2018-05-14T08:02:42.594Z,38.56
2018-05-14T08:03:42.607Z,38.37
2018-05-14T08:04:42.898Z,38.37
2018-05-14T08:05:43.104Z,38.37
2018-05-14T08:06:42.955Z,37.62
2018-05-14T08:07:42.974Z,38
2018-05-14T08:08:42.999Z,38
2018-05-14T08:09:43.007Z,37.81
2018-05-14T08:10:42.763Z,37.73
2018-05-14T08:11:43.166Z,37.63
2018-05-14T08:12:43.104Z,37.15
2018-05-14T08:13:43.102Z,36.86
2018-05-14T08:14:43.135Z,36.86
2018-05-14T08:15:43.167Z,36.47
2018-05-14T08:16:42.913Z,36.28
2018-05-14T08:17:42.934Z,35.91
2018-05-14T08:18:43.249Z,35.72
2018-05-14T08:19:42.974Z,35.81
2018-05-14T08:20:43.283Z,35.62
2018-05-14T08:21:43.290Z,35.72
2018-05-14T08:22:43.046Z,35.52
2018-05-14T08:23:43.349Z,35.15
2018-05-14T08:24:43.361Z,34.96
2018-05-14T08:25:43.388Z,35.05
2018-05-14T08:26:43.152Z,35.05
2018-05-14T08:27:43.437Z,34.86
2018-05-14T08:28:43.473Z,35.05
2018-05-14T08:29:43.532Z,34.86
2018-05-14T08:30:43.502Z,34.39
2018-05-14T08:31:43.533Z,34.3
2018-05-14T08:32:43.579Z,34.49
2018-05-14T08:33:43.578Z,34.78
2018-05-14T08:34:43.346Z,33.73
2018-05-14T08:35:43.641Z,34.41
2018-05-14T08:36:43.660Z,33.92
2018-05-14T08:37:43.421Z,33.92
2018-05-14T08:38:43.708Z,33.64
2018-05-14T08:39:43.736Z,33.73
2018-05-14T08:40:43.763Z,33.64
2018-05-14T08:41:43.792Z,33.56
2018-05-14T08:42:43.824Z,33.26
2018-05-14T08:43:43.821Z,33.65
2018-05-14T08:44:43.867Z,33.18
2018-05-14T08:45:43.895Z,33.18
2018-05-14T08:46:43.628Z,32.5
2018-05-14T08:47:43.917Z,32.6
2018-05-14T08:48:43.945Z,32.32
2018-05-14T08:49:43.989Z,32.42
2018-05-14T08:50:44.012Z,32.13
2018-05-14T08:51:44.014Z,31.94
2018-05-14T08:52:43.779Z,31.35
2018-05-14T08:53:44.080Z,31.47
2018-05-14T08:54:44.141Z,31.37
2018-05-14T08:55:44.114Z,31.37
2018-05-14T08:56:44.151Z,31.18
2018-05-14T08:57:44.265Z,31.37
2018-05-14T08:58:44.191Z,31.08
2018-05-14T08:59:44.214Z,31.29
2018-05-14T09:00:44.416Z,30.9
2018-05-14T09:01:44.002Z,30.51
2018-05-14T09:02:44.326Z,30.61
2018-05-14T09:03:44.313Z,30.62
2018-05-14T09:04:44.087Z,30.43
2018-05-14T09:05:44.387Z,30.72
2018-05-14T09:06:44.393Z,30.44
2018-05-14T09:07:44.438Z,30.15
2018-05-14T09:08:44.533Z,29.86
2018-05-14T09:09:44.486Z,29.47
2018-05-14T09:10:44.519Z,29.28
2018-05-14T09:11:44.524Z,29.58
2018-05-14T09:12:44.559Z,29
2018-05-14T09:13:44.307Z,29.1
2018-05-14T09:14:44.333Z,28.7
2018-05-14T09:15:44.638Z,28.7
2018-05-14T09:16:44.667Z,28.14
2018-05-14T09:17:44.679Z,28.04
2018-05-14T09:18:44.718Z,27.65
2018-05-14T09:19:44.842Z,28.23
2018-05-14T09:20:44.498Z,28.23
2018-05-14T09:21:44.780Z,28.14
2018-05-14T09:22:44.810Z,27.76
2018-05-14T09:23:44.835Z,28.05
2018-05-14T09:24:44.603Z,27.95
2018-05-14T09:25:44.886Z,27.76
2018-05-14T09:26:44.649Z,27.66
2018-05-14T09:27:44.950Z,27.76
2018-05-14T09:28:44.699Z,27.66
2018-05-14T09:29:44.997Z,27.28
2018-05-14T09:30:45.015Z,27.19
2018-05-14T09:31:45.061Z,27.19
2018-05-14T09:32:45.083Z,27.09
2018-05-14T09:33:45.092Z,27
2018-05-14T09:34:44.865Z,27.3
2018-05-14T09:35:45.161Z,26.91
2018-05-14T09:36:45.193Z,26.13
2018-05-14T09:37:45.222Z,26.62
2018-05-14T09:38:45.248Z,26.63
2018-05-14T09:39:44.987Z,26.24
2018-05-14T09:40:45.024Z,25.36
2018-05-14T09:41:45.314Z,25.65
2018-05-14T09:42:45.332Z,24.6
2018-05-14T09:43:45.387Z,24.6
2018-05-14T09:44:45.410Z,24.21
2018-05-14T09:45:45.436Z,24.22
2018-05-14T09:46:45.447Z,23.93
2018-05-14T09:47:45.557Z,23.73
2018-05-14T09:48:45.506Z,23.54
2018-05-14T09:51:05.361Z,22.86
2018-05-14T09:52:05.381Z,23.15
2018-05-14T09:53:05.599Z,23.15
2018-05-14T09:54:05.436Z,23.15
2018-05-14T09:55:05.463Z,22.37
2018-05-14T09:56:05.492Z,22.66
2018-05-14T09:57:05.255Z,22.56
2018-05-14T09:58:05.614Z,22.77
2018-05-14T09:59:05.570Z,22.19
2018-05-14T10:00:05.341Z,22.27
2018-05-14T10:01:05.636Z,21.8
2018-05-14T10:02:05.678Z,22.09
2018-05-14T10:03:05.707Z,22.48
2018-05-14T10:04:05.469Z,22.48
2018-05-14T10:05:05.765Z,22.38
2018-05-14T10:06:05.776Z,22.19
2018-05-14T10:07:05.813Z,21.91
2018-05-14T10:08:05.570Z,21.32
2018-05-14T10:09:05.870Z,21.32
2018-05-14T10:10:05.888Z,21.61
2018-05-14T10:11:05.927Z,21.61
2018-05-14T10:12:05.960Z,21.32
2018-05-14T10:13:06.171Z,21.32
2018-05-14T10:14:06.003Z,21.22
2018-05-14T10:15:06.030Z,21.32
2018-05-14T10:16:06.060Z,21.03
2018-05-14T10:17:06.291Z,21.42
2018-05-14T10:18:06.112Z,21.13
2018-05-14T10:19:06.139Z,21.33
2018-05-14T10:20:06.190Z,21.23
2018-05-14T10:21:06.216Z,21.42
2018-05-14T10:22:06.241Z,21.13
2018-05-14T10:23:06.271Z,21.23
2018-05-14T10:24:06.032Z,21.03
2018-05-14T10:25:06.339Z,21.33
2018-05-14T10:26:06.085Z,21.14
2018-05-14T10:27:06.394Z,21.04
2018-05-14T10:28:06.142Z,21.14
2018-05-14T10:29:06.454Z,20.75
2018-05-14T10:30:06.463Z,20.07
2018-05-14T10:31:06.488Z,20.36
2018-05-14T10:32:06.646Z,20.37
2018-05-14T10:33:06.557Z,19.98
2018-05-14T10:34:06.595Z,19.88
2018-05-14T10:35:06.611Z,19.29
2018-05-14T10:36:06.647Z,19.29
2018-05-14T10:37:06.677Z,19.59
2018-05-14T10:38:06.714Z,19.49
2018-05-14T10:39:06.743Z,19.1
2018-05-14T10:40:06.495Z,18.62
2018-05-14T10:41:06.522Z,18.62
2018-05-14T10:42:06.557Z,18.52
2018-05-14T10:43:06.582Z,18.42
2018-05-14T10:44:06.607Z,18.62
2018-05-14T10:45:06.921Z,18.23
2018-05-14T10:46:06.948Z,18.23
2018-05-14T10:47:06.981Z,18.52
2018-05-14T10:48:07.007Z,18.13
2018-05-14T10:49:07.033Z,17.45
2018-05-14T10:50:07.065Z,17.15
2018-05-14T10:51:06.810Z,17.25
2018-05-14T10:52:07.122Z,17.45
2018-05-14T10:53:06.870Z,17.25
2018-05-14T10:54:07.183Z,17.25
2018-05-14T10:55:07.212Z,16.66
2018-05-14T10:56:06.989Z,16.86
2018-05-14T10:57:07.273Z,16.76
2018-05-14T10:58:07.030Z,16.56
2018-05-14T10:59:07.342Z,16.47
2018-05-14T11:00:07.371Z,16.66
2018-05-14T11:01:07.120Z,16.37
2018-05-14T11:02:07.419Z,16.27
2018-05-14T11:03:07.449Z,15.98
2018-05-14T11:04:07.711Z,15.78
2018-05-14T11:05:07.521Z,15.89
2018-05-14T11:06:07.556Z,15.98
2018-05-14T11:07:07.565Z,16.57
2018-05-14T11:08:07.323Z,16.47
2018-05-14T11:09:07.626Z,16.08
2018-05-14T11:10:07.384Z,16.08
2018-05-14T11:11:07.698Z,15.5
2018-05-14T11:12:07.711Z,14.9
2018-05-14T11:13:07.494Z,15.2
2018-05-14T11:14:07.517Z,15.3
2018-05-14T11:15:07.823Z,15
2018-05-14T11:16:07.572Z,14.51
2018-05-14T11:17:07.869Z,14.71
2018-05-14T11:18:07.651Z,14.81
2018-05-14T11:19:07.677Z,14.81
2018-05-14T11:20:07.978Z,14.62
2018-05-14T11:21:07.989Z,14.13
2018-05-14T11:22:08.033Z,14.03
2018-05-14T11:23:07.792Z,14.52
2018-05-14T11:24:08.106Z,14.62
2018-05-14T11:25:08.122Z,14.81
2018-05-14T11:26:07.888Z,14.62
2018-05-14T11:27:08.190Z,14.72
2018-05-14T11:28:08.216Z,14.53
2018-05-14T11:29:08.235Z,14.42
2018-05-14T11:30:08.288Z,14.53
2018-05-14T11:31:08.305Z,14.72
2018-05-14T11:32:08.335Z,14.72
2018-05-14T11:33:08.376Z,14.92
2018-05-14T11:34:08.406Z,14.82
2018-05-14T11:35:08.444Z,14.62
2018-05-14T11:36:08.187Z,14.82
2018-05-14T11:37:08.493Z,13.94
2018-05-14T11:38:08.518Z,13.95
2018-05-14T11:39:08.580Z,14.04
2018-05-14T11:40:08.579Z,13.65
2018-05-14T11:41:08.355Z,13.95
2018-05-14T11:42:08.666Z,13.95
2018-05-14T11:43:08.423Z,13.55
2018-05-14T11:44:08.713Z,13.85
2018-05-14T11:45:08.750Z,13.65
2018-05-14T11:46:08.789Z,13.75
2018-05-14T11:47:08.824Z,13.65
2018-05-14T11:48:08.852Z,13.45
2018-05-14T11:49:08.871Z,13.16
2018-05-14T11:50:08.917Z,13.17
2018-05-14T11:51:08.931Z,13.26
2018-05-14T11:52:08.957Z,13.07
2018-05-14T11:53:08.733Z,13.06
2018-05-14T11:54:09.038Z,13.26
2018-05-14T11:55:09.073Z,13.46
2018-05-14T11:56:09.117Z,13.36
2018-05-14T11:57:09.130Z,13.07
2018-05-14T11:58:08.898Z,12.97
2018-05-14T11:59:09.199Z,12.78
2018-05-14T12:00:09.215Z,12.88
2018-05-14T12:01:08.979Z,12.88
2018-05-14T12:02:09.277Z,12.68
2018-05-14T12:03:09.133Z,12.68
2018-05-14T12:04:09.390Z,12.68
2018-05-14T12:05:09.392Z,12.88
2018-05-14T12:06:09.451Z,12.88
2018-05-14T12:07:09.456Z,12.88
2018-05-14T12:08:09.469Z,13.07
2018-05-14T12:09:09.565Z,12.88
2018-05-14T12:10:09.663Z,13.08
2018-05-14T12:11:09.579Z,12.79
2018-05-14T12:12:09.670Z,12.88
2018-05-14T12:13:09.632Z,12.59
2018-05-14T12:14:09.406Z,12.1
2018-05-14T12:15:09.431Z,11.7
2018-05-14T12:16:09.974Z,11.61
2018-05-14T12:17:09.788Z,10.92
2018-05-14T12:18:09.539Z,11.12
2018-05-14T12:19:09.843Z,11.32
2018-05-14T12:20:09.859Z,11.32
2018-05-14T12:21:09.890Z,11.32
2018-05-14T12:22:09.920Z,11.32
2018-05-14T12:23:09.955Z,11.41
2018-05-14T12:24:09.998Z,11.32
2018-05-14T12:25:10.049Z,11.22
2018-05-14T12:26:10.081Z,10.53
2018-05-14T12:27:10.088Z,10.72
2018-05-14T12:28:10.132Z,10.53
2018-05-14T12:29:10.196Z,10.92
2018-05-14T12:30:10.200Z,10.33
2018-05-14T12:31:09.944Z,10.24
2018-05-14T12:32:10.429Z,10.33
2018-05-14T12:33:10.296Z,9.94
2018-05-14T12:34:10.375Z,10.13
2018-05-14T12:35:10.365Z,10.24
2018-05-14T12:36:10.378Z,10.33
2018-05-14T12:37:10.426Z,9.94
2018-05-14T12:38:10.438Z,10.13
2018-05-14T12:39:10.491Z,9.94
2018-05-14T12:40:10.527Z,10.33
2018-05-14T12:41:10.553Z,10.24
2018-05-14T12:42:10.309Z,10.24
2018-05-14T12:43:10.619Z,10.04
2018-05-14T12:44:10.642Z,10.04
2018-05-14T12:45:10.411Z,10.14
2018-05-14T12:46:10.832Z,10.24
2018-05-14T12:47:10.472Z,10.24
2018-05-14T12:48:10.773Z,10.63
2018-05-14T12:49:10.585Z,10.73
2018-05-14T12:50:10.835Z,10.73
2018-05-14T12:51:10.893Z,10.63
2018-05-14T12:52:10.904Z,10.63
2018-05-14T12:53:10.675Z,10.63
2018-05-14T12:54:10.964Z,10.73
2018-05-14T12:55:11.004Z,10.74
2018-05-14T12:56:11.041Z,10.53
2018-05-14T12:57:11.203Z,10.93
2018-05-14T12:58:11.108Z,11.13